createdAt,value
2018-07-04T04:01:20.785Z,4.90
2018-07-04T04:03:59.336Z,5.03
2018-07-04T04:06:37.825Z,3.73
2018-07-04T04:09:16.479Z,6.90
2018-07-04T04:11:54.890Z,3.63
2018-07-04T04:14:33.505Z,3.80
2018-07-04T04:17:12.200Z,4.93
2018-07-04T04:19:50.904Z,4.30
2018-07-04T04:22:29.498Z,5.20
2018-07-04T04:25:08.235Z,4.40
2018-07-04T04:27:46.806Z,3.97
2018-07-04T04:30:25.725Z,4.47
2018-07-04T04:33:04.515Z,5.60
2018-07-04T04:35:42.958Z,4.97
2018-07-04T04:38:21.493Z,4.60
2018-07-04T04:41:00.130Z,3.90
2018-07-04T04:43:39.032Z,5.33
2018-07-04T04:46:17.580Z,5.77
2018-07-04T04:48:56.250Z,4.57
2018-07-04T04:51:34.680Z,4.53
2018-07-04T04:54:13.302Z,4.60
2018-07-04T04:56:52.285Z,5.13
2018-07-04T04:59:30.985Z,4.80
2018-07-04T05:02:09.498Z,3.93
2018-07-04T05:04:48.077Z,7.20
2018-07-04T05:07:26.697Z,7.27
2018-07-04T05:10:05.301Z,9.17
2018-07-04T05:12:44.039Z,9.03
2018-07-04T05:15:22.650Z,11.77
2018-07-04T05:18:01.321Z,6.53
2018-07-04T05:20:40.200Z,9.10
2018-07-04T05:23:18.926Z,7.83
2018-07-04T05:25:57.582Z,9.20
2018-07-04T05:28:36.212Z,8.47
2018-07-04T05:31:14.726Z,8.60
2018-07-04T05:33:53.207Z,8.17
2018-07-04T05:36:31.854Z,5.67
2018-07-04T05:39:10.441Z,5.83
2018-07-04T05:41:48.895Z,12.03
2018-07-04T05:44:27.689Z,8.90
2018-07-04T05:47:06.302Z,8.87
2018-07-04T05:49:44.812Z,6.20
2018-07-04T05:52:23.501Z,5.50
2018-07-04T05:55:02.057Z,9.67
2018-07-04T05:57:40.540Z,8.80
2018-07-04T06:00:19.073Z,5.33
2018-07-04T06:02:57.641Z,6.00
2018-07-04T06:05:36.033Z,5.50
2018-07-04T06:08:14.621Z,7.93
2018-07-04T06:10:53.145Z,4.47
2018-07-04T06:13:31.682Z,8.67
2018-07-04T06:16:10.435Z,5.30
2018-07-04T06:18:49.189Z,6.90
2018-07-04T06:21:27.660Z,11.13
2018-07-04T06:24:06.207Z,10.93
2018-07-04T06:26:44.943Z,9.83
2018-07-04T06:29:23.361Z,9.87
2018-07-04T06:32:01.940Z,7.90
2018-07-04T06:34:40.291Z,6.33
2018-07-04T06:37:18.878Z,13.93
2018-07-04T06:39:44.954Z,14.00
2018-07-04T06:42:11.049Z,7.23
2018-07-04T06:44:37.117Z,7.50
2018-07-04T06:47:03.235Z,11.83
2018-07-04T06:49:29.307Z,7.97
2018-07-04T06:51:55.472Z,17.07
2018-07-04T06:54:21.566Z,5.87
2018-07-04T06:56:47.633Z,6.43
2018-07-04T06:59:13.706Z,4.37
2018-07-04T07:01:39.851Z,12.17
2018-07-04T07:04:18.561Z,6.80
2018-07-04T07:06:57.223Z,5.93
2018-07-04T07:09:35.762Z,4.30
2018-07-04T07:12:14.238Z,6.80
2018-07-04T07:14:52.793Z,3.83
2018-07-04T07:17:31.394Z,4.93
2018-07-04T07:20:09.998Z,3.30
2018-07-04T07:22:48.742Z,4.73
2018-07-04T07:25:27.377Z,4.90
2018-07-04T07:28:06.136Z,3.47
2018-07-04T07:30:44.698Z,4.73
2018-07-04T07:33:23.255Z,6.80
2018-07-04T07:36:01.734Z,4.70
2018-07-04T07:38:40.174Z,3.47
2018-07-04T07:41:18.788Z,3.07
2018-07-04T07:43:57.461Z,4.50
2018-07-04T07:46:36.137Z,5.30
2018-07-04T07:49:14.703Z,4.33
2018-07-04T07:51:53.298Z,8.17
2018-07-04T07:54:32.012Z,3.73
2018-07-04T07:57:10.726Z,4.47
2018-07-04T07:59:49.342Z,6.20
2018-07-04T08:02:27.884Z,3.73
2018-07-04T08:05:06.474Z,5.20
2018-07-04T08:07:44.949Z,3.00
2018-07-04T08:10:23.497Z,6.10
2018-07-04T08:13:02.326Z,5.50
2018-07-04T08:15:41.050Z,9.43
2018-07-04T08:18:19.735Z,3.40
2018-07-04T08:20:58.449Z,4.17
2018-07-04T08:23:37.077Z,3.87
2018-07-04T08:26:15.653Z,7.23
2018-07-04T08:28:54.358Z,7.70
2018-07-04T08:31:33.029Z,6.53
2018-07-04T08:34:11.721Z,5.50
2018-07-04T08:36:50.341Z,7.73
2018-07-04T08:39:29.058Z,7.23
2018-07-04T08:42:07.601Z,4.37
2018-07-04T08:44:46.281Z,5.03
2018-07-04T08:47:24.922Z,3.10
2018-07-04T08:50:03.574Z,6.37
2018-07-04T08:52:42.177Z,3.37
2018-07-04T08:55:20.689Z,7.90
2018-07-04T08:57:59.331Z,2.87
2018-07-04T09:00:37.882Z,4.73
2018-07-04T09:03:16.488Z,10.67
2018-07-04T09:05:55.061Z,5.40
2018-07-04T09:08:33.816Z,2.80
2018-07-04T09:11:12.239Z,6.30
2018-07-04T09:13:50.970Z,3.40
2018-07-04T09:16:29.795Z,3.07
2018-07-04T09:19:08.411Z,2.90
2018-07-04T09:21:47.158Z,8.93
2018-07-04T09:24:25.858Z,3.37
2018-07-04T09:27:04.530Z,5.20
2018-07-04T09:29:43.219Z,6.60
2018-07-04T09:32:22.014Z,3.53
2018-07-04T09:35:00.774Z,5.87
2018-07-04T09:37:39.169Z,7.40
2018-07-04T09:40:17.793Z,6.17
2018-07-04T09:42:56.457Z,4.83
2018-07-04T09:45:35.040Z,3.57
2018-07-04T09:48:13.649Z,5.33
2018-07-04T09:50:52.274Z,3.00
2018-07-04T09:53:30.862Z,7.20
2018-07-04T09:56:09.725Z,4.43
2018-07-04T09:58:48.444Z,6.97
2018-07-04T10:01:26.983Z,3.57
2018-07-04T10:04:05.571Z,6.03
2018-07-04T10:06:44.604Z,2.80
2018-07-04T10:09:23.550Z,4.60
2018-07-04T10:12:02.144Z,4.23
2018-07-04T10:14:40.689Z,3.17
2018-07-04T10:17:19.453Z,3.73
2018-07-04T10:19:58.549Z,4.40
2018-07-04T10:22:37.161Z,3.37
2018-07-04T10:25:15.786Z,3.30
2018-07-04T10:27:54.402Z,4.30
2018-07-04T10:30:33.146Z,4.33
2018-07-04T10:33:11.673Z,5.43
2018-07-04T10:35:50.381Z,2.60
2018-07-04T10:38:28.906Z,2.30
2018-07-04T10:41:07.362Z,6.80
2018-07-04T10:43:45.983Z,2.80
2018-07-04T10:46:24.679Z,2.50
2018-07-04T10:49:03.426Z,2.77
2018-07-04T10:51:41.874Z,4.30
2018-07-04T10:54:20.487Z,2.57
2018-07-04T10:56:59.080Z,3.07
2018-07-04T10:59:37.686Z,4.03
2018-07-04T11:02:16.225Z,2.20
2018-07-04T11:04:54.649Z,2.10
2018-07-04T11:07:33.130Z,2.53
2018-07-04T11:10:11.533Z,3.73
2018-07-04T11:12:50.213Z,4.27
2018-07-04T11:15:28.663Z,2.10
2018-07-04T11:18:07.185Z,2.30
2018-07-04T11:20:45.658Z,1.97
2018-07-04T11:23:24.211Z,3.30
2018-07-04T11:26:02.838Z,1.97
2018-07-04T11:28:41.379Z,1.80
2018-07-04T11:31:19.868Z,2.17
2018-07-04T11:33:58.545Z,2.70
2018-07-04T11:36:37.046Z,1.93
2018-07-04T11:39:15.586Z,1.87
2018-07-04T11:41:54.198Z,2.07
2018-07-04T11:44:32.901Z,1.20
2018-07-04T11:46:58.961Z,3.70
2018-07-04T11:49:25.042Z,1.33
2018-07-04T11:51:51.169Z,1.90
2018-07-04T11:54:17.249Z,3.43
2018-07-04T11:56:43.517Z,1.50
2018-07-04T11:59:09.589Z,3.57
2018-07-04T12:01:35.673Z,2.30
2018-07-04T12:04:14.318Z,4.23
2018-07-04T12:06:52.810Z,1.70
2018-07-04T12:09:18.914Z,2.90
2018-07-04T12:11:45.012Z,1.83
2018-07-04T12:14:11.098Z,2.25
2018-07-04T12:16:37.382Z,2.77
2018-07-04T12:19:03.460Z,2.67
2018-07-04T12:21:29.549Z,1.62
2018-07-04T12:23:55.611Z,1.70
2018-07-04T12:26:21.693Z,1.40
2018-07-04T12:28:47.800Z,1.20
2018-07-04T12:31:13.916Z,3.02
2018-07-04T12:33:39.992Z,1.10
2018-07-04T12:36:06.076Z,3.40
2018-07-04T12:38:32.156Z,1.40
2018-07-04T12:40:58.239Z,4.87
2018-07-04T12:43:24.364Z,1.72
2018-07-04T12:45:50.390Z,2.75
2018-07-04T12:48:16.454Z,4.78
2018-07-04T12:50:42.537Z,3.40
2018-07-04T12:53:08.622Z,1.55
2018-07-04T12:55:47.243Z,1.92
2018-07-04T12:58:25.977Z,2.95
2018-07-04T13:01:04.493Z,2.17
2018-07-04T13:03:43.043Z,2.08
2018-07-04T13:06:21.586Z,3.83
2018-07-04T13:09:00.370Z,1.60
2018-07-04T13:11:39.042Z,4.20
2018-07-04T13:14:17.609Z,1.60
2018-07-04T13:16:56.153Z,1.52
2018-07-04T13:19:35.162Z,1.37
2018-07-04T13:22:13.688Z,1.92
2018-07-04T13:24:52.332Z,2.05
2018-07-04T13:27:30.763Z,1.60
2018-07-04T13:30:09.361Z,4.67
2018-07-04T13:32:48.057Z,2.15
2018-07-04T13:35:26.701Z,1.62
2018-07-04T13:38:05.190Z,2.77
2018-07-04T13:40:43.726Z,3.10
2018-07-04T13:43:22.219Z,1.30
2018-07-04T13:46:00.718Z,1.80
2018-07-04T13:48:39.316Z,4.37
2018-07-04T13:51:17.977Z,4.17
2018-07-04T13:53:56.633Z,1.53
2018-07-04T13:56:35.259Z,3.10
2018-07-04T13:59:14.006Z,2.40
2018-07-04T14:01:52.665Z,1.50
2018-07-04T14:04:31.223Z,2.93
2018-07-04T14:07:10.050Z,1.50
2018-07-04T14:09:48.672Z,1.77
2018-07-04T14:12:27.194Z,1.60
2018-07-04T14:15:05.946Z,2.60
2018-07-04T14:17:44.633Z,1.70
2018-07-04T14:20:23.798Z,3.03
2018-07-04T14:23:02.477Z,1.40
2018-07-04T14:25:41.110Z,3.43
2018-07-04T14:28:19.597Z,3.33
2018-07-04T14:30:58.109Z,3.10
2018-07-04T14:33:36.608Z,2.03
2018-07-04T14:36:15.278Z,5.13
2018-07-04T14:38:53.885Z,2.07
2018-07-04T14:41:32.534Z,2.30
2018-07-04T14:44:11.185Z,1.97
2018-07-04T14:46:49.750Z,3.60
2018-07-04T14:49:28.301Z,3.53
2018-07-04T14:52:07.223Z,1.80
2018-07-04T14:54:46.014Z,1.57
2018-07-04T14:57:24.606Z,3.20
2018-07-04T15:00:03.265Z,2.13
2018-07-04T15:02:42.001Z,2.30
2018-07-04T15:05:20.621Z,2.00
2018-07-04T15:08:00.234Z,2.17
2018-07-04T15:10:38.818Z,1.70
2018-07-04T15:13:17.302Z,2.90
2018-07-04T15:15:55.931Z,2.00
2018-07-04T15:18:34.631Z,3.63
2018-07-04T15:21:13.127Z,2.70
2018-07-04T15:23:53.425Z,2.37
2018-07-04T15:26:32.046Z,6.30
2018-07-04T15:29:10.585Z,2.07
2018-07-04T15:31:51.462Z,3.63
2018-07-04T15:34:30.001Z,2.70
2018-07-04T15:37:08.693Z,2.37
2018-07-04T15:39:47.366Z,2.50
2018-07-04T15:42:25.910Z,3.57
2018-07-04T15:45:04.465Z,3.47
2018-07-04T15:47:43.250Z,1.90
2018-07-04T15:50:21.969Z,3.43
2018-07-04T15:53:01.763Z,4.37
2018-07-04T15:55:40.346Z,3.53
2018-07-04T15:58:18.954Z,4.70
2018-07-04T16:01:01.942Z,4.10
2018-07-04T16:03:40.563Z,3.20
2018-07-04T16:06:19.109Z,3.40
2018-07-04T16:09:01.694Z,3.30
2018-07-04T16:11:40.252Z,10.47
2018-07-04T16:14:19.368Z,3.60
2018-07-04T16:16:58.066Z,5.77
2018-07-04T16:19:36.784Z,3.63
2018-07-04T16:22:15.474Z,6.23
2018-07-04T16:24:54.349Z,7.13
2018-07-04T16:27:33.122Z,3.40
2018-07-04T16:30:11.669Z,4.83
2018-07-04T16:32:50.281Z,4.50
2018-07-04T16:35:28.786Z,4.00
2018-07-04T16:38:07.459Z,4.13
2018-07-04T16:40:46.064Z,3.40
2018-07-04T16:43:24.598Z,3.20
2018-07-04T16:46:03.123Z,5.07
2018-07-04T16:48:41.610Z,2.80
2018-07-04T16:51:20.100Z,3.03
2018-07-04T16:53:58.605Z,3.50
2018-07-04T16:56:37.322Z,3.20
2018-07-04T16:59:15.957Z,5.73
2018-07-04T17:01:54.556Z,2.87
2018-07-04T17:04:32.980Z,3.63
2018-07-04T17:07:11.551Z,4.57
2018-07-04T17:09:50.019Z,2.80
2018-07-04T17:12:28.530Z,2.83
2018-07-04T17:15:07.108Z,4.13
2018-07-04T17:17:45.608Z,6.80
2018-07-04T17:20:24.213Z,3.80
2018-07-04T17:23:02.606Z,4.47
2018-07-04T17:25:41.121Z,3.50
2018-07-04T17:28:19.789Z,4.10
2018-07-04T17:30:58.446Z,3.37
2018-07-04T17:33:37.309Z,3.77
2018-07-04T17:36:16.042Z,4.47
2018-07-04T17:38:54.573Z,6.07
2018-07-04T17:41:33.478Z,5.30
2018-07-04T17:44:12.084Z,4.40
2018-07-04T17:46:50.690Z,6.40
2018-07-04T17:49:29.367Z,4.30
2018-07-04T17:52:07.934Z,5.97
2018-07-04T17:54:48.730Z,4.80
2018-07-04T17:57:27.365Z,5.03
2018-07-04T18:00:06.403Z,4.60
2018-07-04T18:02:45.118Z,7.17
2018-07-04T18:05:23.830Z,5.27
2018-07-04T18:08:02.443Z,4.67
2018-07-04T18:10:41.177Z,5.80
2018-07-04T18:13:19.960Z,4.70
2018-07-04T18:15:58.493Z,5.30
2018-07-04T18:18:37.085Z,5.03
2018-07-04T18:21:21.901Z,4.40
2018-07-04T18:24:00.502Z,5.10
2018-07-04T18:26:39.087Z,4.83
2018-07-04T18:29:17.482Z,4.83
2018-07-04T18:31:56.159Z,4.77
2018-07-04T18:34:34.878Z,5.13
2018-07-04T18:37:13.492Z,4.20
2018-07-04T18:39:51.978Z,4.90
2018-07-04T18:42:30.618Z,4.40
2018-07-04T18:45:09.169Z,6.70
2018-07-04T18:47:47.850Z,5.37
2018-07-04T18:50:26.464Z,5.53
2018-07-04T18:53:05.009Z,6.63
2018-07-04T18:55:43.518Z,5.00
2018-07-04T18:58:22.165Z,5.30
2018-07-04T19:01:00.619Z,5.57
2018-07-04T19:03:39.166Z,5.87
2018-07-04T19:06:17.973Z,5.23
2018-07-04T19:08:56.688Z,5.90
2018-07-04T19:11:35.233Z,5.23
2018-07-04T19:14:13.902Z,5.77
2018-07-04T19:16:52.594Z,5.43
2018-07-04T19:19:31.122Z,6.03
2018-07-04T19:22:09.593Z,6.17
2018-07-04T19:24:48.225Z,5.40
2018-07-04T19:27:26.701Z,6.03
2018-07-04T19:30:05.293Z,6.80
2018-07-04T19:32:43.771Z,6.40
2018-07-04T19:35:22.485Z,5.77
2018-07-04T19:38:01.017Z,5.70
2018-07-04T19:40:39.730Z,7.30
2018-07-04T19:43:18.396Z,9.10
2018-07-04T19:45:56.852Z,12.17
2018-07-04T19:48:35.356Z,10.10
2018-07-04T19:51:13.894Z,7.90
2018-07-04T19:53:52.540Z,8.27
2018-07-04T19:56:31.192Z,6.80
2018-07-04T19:59:09.791Z,5.10
2018-07-04T20:01:48.450Z,5.70
2018-07-04T20:04:26.887Z,5.50
2018-07-04T20:07:05.398Z,4.97
2018-07-04T20:09:43.794Z,5.50
2018-07-04T20:12:22.318Z,7.40
2018-07-04T20:15:00.797Z,7.07
2018-07-04T20:17:39.580Z,7.33
2018-07-04T20:20:18.463Z,6.80
2018-07-04T20:22:57.045Z,6.87
2018-07-04T20:25:35.543Z,7.00
2018-07-04T20:28:14.182Z,7.43
2018-07-04T20:30:53.129Z,5.50
2018-07-04T20:33:31.682Z,5.30
2018-07-04T20:36:10.333Z,6.80
2018-07-04T20:38:49.022Z,8.00
2018-07-04T20:41:27.845Z,4.90
2018-07-04T20:44:06.699Z,6.70
2018-07-04T20:46:45.762Z,5.50
2018-07-04T20:49:24.399Z,5.27
2018-07-04T20:52:03.073Z,5.97
2018-07-04T20:54:41.522Z,5.90
2018-07-04T20:57:20.117Z,5.90
2018-07-04T20:59:59.094Z,5.17
2018-07-04T21:02:37.614Z,6.60
2018-07-04T21:05:16.306Z,6.03
2018-07-04T21:07:55.829Z,5.93
2018-07-04T21:10:34.321Z,7.57
2018-07-04T21:13:12.833Z,7.00
2018-07-04T21:15:51.882Z,6.93
2018-07-04T21:18:30.458Z,6.67
2018-07-04T21:21:09.241Z,6.87
2018-07-04T21:23:47.813Z,7.10
2018-07-04T21:26:27.184Z,6.77
2018-07-04T21:29:05.778Z,8.07
2018-07-04T21:31:44.297Z,6.60
2018-07-04T21:34:22.933Z,7.17
2018-07-04T21:37:01.696Z,6.63
2018-07-04T21:39:42.615Z,6.43
2018-07-04T21:42:23.059Z,9.63
2018-07-04T21:45:01.846Z,13.43
2018-07-04T21:47:40.342Z,8.80
2018-07-04T21:50:18.988Z,12.63
2018-07-04T21:52:57.577Z,9.47
2018-07-04T21:55:36.218Z,7.77
2018-07-04T21:58:14.848Z,7.13
2018-07-04T22:00:53.357Z,7.73
2018-07-04T22:03:31.906Z,8.50
2018-07-04T22:06:10.409Z,9.17
2018-07-04T22:08:49.038Z,7.07
2018-07-04T22:11:27.633Z,7.23
2018-07-04T22:14:06.142Z,6.90
2018-07-04T22:16:44.651Z,8.53
2018-07-04T22:19:23.146Z,8.07
2018-07-04T22:22:01.829Z,8.23
2018-07-04T22:24:40.529Z,8.63
2018-07-04T22:27:19.227Z,8.23
2018-07-04T22:29:58.041Z,7.73
2018-07-04T22:32:36.532Z,8.27
2018-07-04T22:35:15.210Z,7.87
2018-07-04T22:37:53.891Z,8.60
2018-07-04T22:40:32.529Z,8.23
2018-07-04T22:43:11.235Z,9.00
2018-07-04T22:45:49.765Z,7.13
2018-07-04T22:48:28.194Z,9.03
2018-07-04T22:51:06.856Z,7.97
2018-07-04T22:53:45.577Z,7.97
2018-07-04T22:56:24.225Z,8.00
2018-07-04T22:59:02.665Z,8.07
2018-07-04T23:01:41.286Z,7.53
2018-07-04T23:04:19.949Z,7.40
2018-07-04T23:06:58.617Z,8.23
2018-07-04T23:09:37.193Z,8.40
2018-07-04T23:12:15.853Z,8.60
2018-07-04T23:14:54.444Z,8.13
2018-07-04T23:17:33.042Z,8.37
2018-07-04T23:20:11.593Z,8.40
2018-07-04T23:22:50.296Z,8.60
2018-07-04T23:25:28.941Z,7.10
2018-07-04T23:28:07.536Z,8.77
2018-07-04T23:30:46.243Z,8.60
2018-07-04T23:33:24.996Z,7.93
2018-07-04T23:36:03.614Z,7.70
2018-07-04T23:38:42.161Z,7.97
2018-07-04T23:41:20.771Z,7.77
2018-07-04T23:43:59.445Z,9.17
2018-07-04T23:46:38.121Z,8.30
2018-07-04T23:49:16.681Z,12.53
2018-07-04T23:51:55.225Z,9.60
2018-07-04T23:54:33.709Z,7.70
2018-07-04T23:57:12.397Z,8.13
2018-07-04T23:59:51.150Z,9.30
